Time;durP1;ratioP1;P1;durP2;ratioP2;P2;SDS_P1;SDS_P2;PMS_P1;PMS_P2;Temp;Humidity;BMP_temperature;BMP_pressure;BME280_temperature;BME280_humidity;BME280_pressure;Samples;Min_cycle;Max_cycle;Signal;HPM_P1;HPM_P2
2023/12/14 00:01:50;;;;;;;3.35;1.10;;;18.80;39.00;;;;;;5110415;28;20581;-65
2023/12/14 00:04:17;;;;;;;3.50;1.23;;;18.80;39.70;;;;;;5111574;28;20335;-65
2023/12/14 00:06:46;;;;;;;3.35;1.02;;;18.80;39.80;;;;;;5110697;28;20198;-66
2023/12/14 00:09:13;;;;;;;2.97;1.20;;;18.80;39.10;;;;;;5110688;28;20217;-65
2023/12/14 00:11:40;;;;;;;3.13;1.40;;;18.80;39.10;;;;;;5110542;28;20247;-66
2023/12/14 00:14:07;;;;;;;3.33;1.50;;;18.70;39.70;;;;;;5111340;28;20227;-66
2023/12/14 00:16:34;;;;;;;1.55;1.20;;;18.70;39.00;;;;;;5090728;28;20277;-66
2023/12/14 00:19:01;;;;;;;3.05;1.30;;;18.70;39.80;;;;;;5091095;28;20236;-64
2023/12/14 00:21:28;;;;;;;3.25;1.27;;;18.70;39.00;;;;;;5090511;28;20624;-63
2023/12/14 00:23:56;;;;;;;3.40;1.40;;;18.70;39.00;;;;;;5090428;28;20190;-63
2023/12/14 00:26:23;;;;;;;3.08;1.17;;;18.80;39.20;;;;;;5091040;28;20232;-63
2023/12/14 00:28:49;;;;;;;1.73;1.27;;;18.70;39.10;;;;;;5090653;28;20273;-64
2023/12/14 00:31:17;;;;;;;2.08;1.13;;;18.70;39.20;;;;;;5090089;28;20682;-63
2023/12/14 00:33:44;;;;;;;4.05;1.20;;;18.70;39.20;;;;;;5098976;28;20211;-63
2023/12/14 00:36:18;;;;;;;3.22;1.35;;;18.70;39.10;;;;;;5114314;28;20193;-64
2023/12/14 00:38:45;;;;;;;5.18;1.10;;;18.70;39.20;;;;;;5113909;28;20195;-63
2023/12/14 00:41:14;;;;;;;2.30;1.20;;;18.70;39.10;;;;;;5114394;28;20275;-62
2023/12/14 00:43:41;;;;;;;4.10;1.10;;;18.70;39.10;;;;;;5114498;28;20613;-65
2023/12/14 00:46:09;;;;;;;3.70;1.40;;;18.70;39.10;;;;;;5111989;28;20268;-63
2023/12/14 00:48:36;;;;;;;2.45;1.30;;;18.70;39.20;;;;;;5114348;28;20204;-64
2023/12/14 00:51:04;;;;;;;3.05;1.15;;;18.60;39.10;;;;;;5114434;28;20305;-63
2023/12/14 00:53:31;;;;;;;1.77;1.20;;;18.60;39.10;;;;;;5113990;28;20665;-66
2023/12/14 00:55:57;;;;;;;4.32;1.60;;;18.60;39.10;;;;;;5114013;28;20212;-64
2023/12/14 00:58:26;;;;;;;3.58;1.33;;;18.60;39.10;;;;;;5114650;28;20193;-65
2023/12/14 01:00:54;;;;;;;1.88;1.10;;;18.60;39.10;;;;;;5105971;28;20229;-63
2023/12/14 01:03:21;;;;;;;2.70;1.42;;;18.60;39.20;;;;;;5113578;28;20643;-65
2023/12/14 01:05:48;;;;;;;2.08;1.13;;;18.60;39.10;;;;;;5114371;28;20302;-65
2023/12/14 01:08:15;;;;;;;3.33;1.35;;;18.60;39.80;;;;;;5113884;28;20276;-60
2023/12/14 01:10:42;;;;;;;2.38;1.13;;;18.60;39.20;;;;;;5113630;28;20229;-65
2023/12/14 01:13:09;;;;;;;2.97;1.20;;;18.60;39.20;;;;;;5113953;28;20288;-63
2023/12/14 01:15:37;;;;;;;2.35;1.13;;;18.60;39.20;;;;;;5113441;28;20219;-63
2023/12/14 01:18:04;;;;;;;1.50;1.10;;;18.60;39.20;;;;;;5113835;28;20189;-64
2023/12/14 01:20:31;;;;;;;2.60;1.13;;;18.60;39.20;;;;;;5113884;28;20231;-66
2023/12/14 01:22:57;;;;;;;2.30;1.35;;;18.60;39.20;;;;;;5113454;28;20280;-66
2023/12/14 01:25:24;;;;;;;3.22;1.42;;;18.50;39.10;;;;;;5113577;28;20300;-63
2023/12/14 01:27:51;;;;;;;2.95;1.23;;;18.50;39.10;;;;;;5113687;28;20203;-63
2023/12/14 01:30:18;;;;;;;1.83;1.00;;;18.50;39.10;;;;;;5104271;28;20217;-65
2023/12/14 01:32:46;;;;;;;2.33;0.95;;;18.50;39.20;;;;;;5113929;28;20196;-63
2023/12/14 01:35:13;;;;;;;3.33;1.75;;;18.50;39.80;;;;;;5113840;28;20217;-65
2023/12/14 01:37:40;;;;;;;3.13;1.42;;;18.50;39.20;;;;;;5112791;28;20192;-66
2023/12/14 01:40:08;;;;;;;2.13;1.20;;;18.50;39.20;;;;;;5113349;28;20271;-63
2023/12/14 01:42:35;;;;;;;2.47;1.13;;;18.50;39.20;;;;;;5113219;28;20204;-62
2023/12/14 01:45:02;;;;;;;2.05;1.27;;;18.50;39.30;;;;;;5113097;28;20304;-63
2023/12/14 01:47:29;;;;;;;3.45;1.40;;;18.50;39.30;;;;;;5103265;28;20185;-63
2023/12/14 01:49:58;;;;;;;4.72;1.58;;;18.50;39.30;;;;;;5113058;28;20330;-63
2023/12/14 01:52:25;;;;;;;3.83;1.55;;;18.50;39.30;;;;;;5113012;28;20197;-66
2023/12/14 01:54:51;;;;;;;2.53;1.20;;;18.50;39.30;;;;;;5113375;28;20217;-63
2023/12/14 01:57:18;;;;;;;1.75;1.08;;;18.40;39.20;;;;;;5111989;28;20294;-65
2023/12/14 01:59:45;;;;;;;1.95;1.30;;;18.50;39.50;;;;;;5112960;28;20235;-66
2023/12/14 02:02:12;;;;;;;2.80;1.10;;;18.50;39.30;;;;;;5112758;28;20560;-64
2023/12/14 02:04:39;;;;;;;2.20;1.17;;;18.50;40.00;;;;;;5112774;28;20213;-63
2023/12/14 02:07:07;;;;;;;2.03;1.30;;;18.50;39.30;;;;;;5112828;28;20185;-63
2023/12/14 02:09:34;;;;;;;4.43;1.30;;;18.40;39.30;;;;;;5113179;28;20303;-64
2023/12/14 02:12:01;;;;;;;3.28;1.20;;;18.40;39.30;;;;;;5112188;28;20335;-64
2023/12/14 02:14:28;;;;;;;1.98;1.20;;;18.40;39.30;;;;;;5112117;28;20311;-64
2023/12/14 02:16:55;;;;;;;3.22;1.30;;;18.40;39.30;;;;;;5112615;28;20284;-59
2023/12/14 02:19:22;;;;;;;2.17;1.20;;;18.40;39.40;;;;;;5112484;28;20609;-63
2023/12/14 02:21:49;;;;;;;1.85;1.20;;;18.40;39.30;;;;;;5112119;28;20190;-66
2023/12/14 02:24:18;;;;;;;2.83;1.20;;;18.40;39.40;;;;;;5111813;28;20216;-65
2023/12/14 02:26:44;;;;;;;1.85;1.10;;;18.40;39.90;;;;;;5112818;28;20189;-63
2023/12/14 02:29:11;;;;;;;2.58;1.30;;;18.40;39.40;;;;;;5112485;28;20310;-63
2023/12/14 02:31:38;;;;;;;4.85;1.50;;;18.40;39.40;;;;;;5112187;28;20193;-63
2023/12/14 02:34:05;;;;;;;4.03;1.15;;;18.40;40.10;;;;;;5112786;28;20193;-63
2023/12/14 02:36:32;;;;;;;2.15;1.20;;;18.40;39.40;;;;;;5112239;28;20208;-63
2023/12/14 02:38:59;;;;;;;3.25;1.17;;;18.30;39.40;;;;;;5107841;28;20193;-63
2023/12/14 02:41:27;;;;;;;1.98;1.25;;;18.40;39.50;;;;;;5098749;28;20585;-63
2023/12/14 02:43:54;;;;;;;4.50;1.42;;;18.40;40.10;;;;;;5111476;28;20199;-64
2023/12/14 02:46:21;;;;;;;3.08;1.58;;;18.40;40.10;;;;;;5101488;28;20213;-62
2023/12/14 02:48:48;;;;;;;3.83;1.30;;;18.40;39.50;;;;;;5104163;28;20204;-64
2023/12/14 02:51:15;;;;;;;3.65;1.25;;;18.40;39.50;;;;;;5110327;28;20311;-63
2023/12/14 02:53:43;;;;;;;1.85;1.33;;;18.30;39.50;;;;;;5112341;28;20207;-63
2023/12/14 02:56:11;;;;;;;4.68;1.40;;;18.40;40.20;;;;;;5111522;28;20219;-64
2023/12/14 02:58:39;;;;;;;2.22;1.30;;;18.40;39.50;;;;;;5111555;28;20201;-63
2023/12/14 03:01:06;;;;;;;3.80;1.42;;;18.30;40.20;;;;;;5111747;28;20690;-63
2023/12/14 03:03:33;;;;;;;3.75;1.48;;;18.30;39.50;;;;;;5112036;28;20197;-63
2023/12/14 03:06:00;;;;;;;2.22;1.30;;;18.30;40.20;;;;;;5111373;28;20283;-63
2023/12/14 03:08:27;;;;;;;3.33;1.25;;;18.30;39.60;;;;;;5112149;28;20189;-64
2023/12/14 03:10:54;;;;;;;3.22;1.40;;;18.30;39.60;;;;;;5111713;28;20225;-64
2023/12/14 03:13:20;;;;;;;3.47;1.30;;;18.30;39.60;;;;;;5110952;28;20692;-63
2023/12/14 03:15:49;;;;;;;4.35;1.27;;;18.30;39.60;;;;;;5112047;28;20667;-64
2023/12/14 03:18:16;;;;;;;3.40;1.40;;;18.30;39.60;;;;;;5104429;28;20194;-63
2023/12/14 03:20:43;;;;;;;3.55;1.40;;;18.30;39.60;;;;;;5110924;28;20232;-63
2023/12/14 03:23:10;;;;;;;3.05;1.20;;;18.30;39.70;;;;;;5112003;28;20630;-63
2023/12/14 03:25:37;;;;;;;1.73;1.25;;;18.30;39.70;;;;;;5111686;28;20308;-59
2023/12/14 03:28:04;;;;;;;2.45;1.10;;;18.20;39.60;;;;;;5111665;28;20280;-63
2023/12/14 03:30:31;;;;;;;2.97;1.33;;;18.20;39.70;;;;;;5111478;28;20570;-63
2023/12/14 03:32:59;;;;;;;3.88;1.20;;;18.20;39.70;;;;;;5111479;28;20193;-63
2023/12/14 03:35:26;;;;;;;4.15;1.25;;;18.20;39.70;;;;;;5111416;28;20227;-63
2023/12/14 03:37:53;;;;;;;2.42;1.23;;;18.20;39.80;;;;;;5111883;28;20280;-64
2023/12/14 03:40:20;;;;;;;2.38;1.40;;;18.20;39.70;;;;;;5111148;28;20233;-63
2023/12/14 03:42:47;;;;;;;4.45;1.38;;;18.20;39.80;;;;;;5111193;28;20197;-64
2023/12/14 03:45:14;;;;;;;2.60;1.27;;;18.20;39.80;;;;;;5109832;28;20597;-63
2023/12/14 03:47:41;;;;;;;4.05;1.52;;;18.20;39.80;;;;;;5102452;28;20203;-63
2023/12/14 03:50:12;;;;;;;1.83;1.27;;;18.20;39.80;;;;;;5111371;28;20671;-63
2023/12/14 03:52:39;;;;;;;2.83;1.30;;;18.20;39.80;;;;;;5111338;28;20280;-58
2023/12/14 03:55:07;;;;;;;1.48;1.23;;;18.20;39.90;;;;;;5111327;28;20228;-63
2023/12/14 03:57:34;;;;;;;2.33;1.10;;;18.20;39.90;;;;;;5111449;28;20197;-63
2023/12/14 04:00:01;;;;;;;3.20;1.40;;;18.20;39.90;;;;;;5111125;28;20239;-63
2023/12/14 04:02:28;;;;;;;1.58;0.90;;;18.20;40.50;;;;;;5111161;28;20670;-63
2023/12/14 04:04:55;;;;;;;2.08;1.23;;;18.20;39.90;;;;;;5111136;28;20600;-63
2023/12/14 04:07:24;;;;;;;2.35;1.38;;;18.10;40.40;;;;;;5111268;28;20189;-63
2023/12/14 04:09:50;;;;;;;4.82;1.42;;;18.10;39.80;;;;;;5114621;28;20333;-63
2023/12/14 04:12:17;;;;;;;3.65;1.40;;;18.20;39.90;;;;;;5113701;28;20605;-63
2023/12/14 04:14:44;;;;;;;1.83;1.13;;;18.10;39.80;;;;;;5111524;28;20217;-63
2023/12/14 04:17:12;;;;;;;1.98;1.02;;;18.10;39.80;;;;;;5115442;28;20193;-63
2023/12/14 04:19:39;;;;;;;4.70;1.23;;;18.10;39.80;;;;;;5114475;28;20227;-63
2023/12/14 04:22:06;;;;;;;2.22;1.30;;;18.10;39.80;;;;;;5114451;28;20654;-63
2023/12/14 04:24:35;;;;;;;1.75;1.20;;;18.10;39.80;;;;;;5115090;28;20299;-63
2023/12/14 04:27:02;;;;;;;2.10;1.25;;;18.10;39.80;;;;;;5114098;28;20565;-63
2023/12/14 04:29:29;;;;;;;2.92;1.33;;;18.10;40.50;;;;;;5114808;28;20655;-63
2023/12/14 04:31:56;;;;;;;4.60;1.30;;;18.10;39.80;;;;;;5114556;28;20573;-63
2023/12/14 04:34:22;;;;;;;5.75;1.65;;;18.10;39.80;;;;;;5114258;28;20276;-63
2023/12/14 04:36:52;;;;;;;3.53;1.10;;;18.10;40.50;;;;;;5114958;28;20280;-62
2023/12/14 04:39:19;;;;;;;3.42;1.20;;;18.10;39.80;;;;;;5114926;28;20382;-63
2023/12/14 04:41:48;;;;;;;2.83;1.30;;;18.10;40.40;;;;;;5108765;28;20210;-63
2023/12/14 04:44:14;;;;;;;2.17;1.23;;;18.00;39.70;;;;;;5114855;28;20288;-63
2023/12/14 04:46:42;;;;;;;3.20;1.20;;;18.00;39.70;;;;;;5108927;28;20636;-64
2023/12/14 04:49:09;;;;;;;4.60;1.40;;;18.10;39.90;;;;;;5114058;28;20196;-63
2023/12/14 04:51:36;;;;;;;2.22;1.08;;;18.10;40.50;;;;;;5114262;28;20227;-63
2023/12/14 04:54:03;;;;;;;2.63;1.33;;;18.10;39.80;;;;;;5114439;28;20273;-61
2023/12/14 04:56:30;;;;;;;1.50;1.05;;;18.00;39.80;;;;;;5114250;28;20232;-62
2023/12/14 04:58:59;;;;;;;3.35;1.40;;;18.00;39.90;;;;;;5114541;28;20237;-63
2023/12/14 05:01:27;;;;;;;4.25;1.30;;;18.00;40.50;;;;;;5113480;28;20228;-63
2023/12/14 05:03:54;;;;;;;4.88;1.15;;;18.00;40.00;;;;;;5113803;28;20193;-63
2023/12/14 05:06:22;;;;;;;3.33;1.60;;;18.00;39.90;;;;;;5114390;28;20279;-63
2023/12/14 05:08:49;;;;;;;2.00;1.20;;;18.00;40.00;;;;;;5113585;28;20280;-62
2023/12/14 05:11:16;;;;;;;1.75;1.30;;;18.00;40.00;;;;;;5106733;28;20233;-62
2023/12/14 05:13:43;;;;;;;2.08;1.00;;;18.00;40.00;;;;;;5113824;28;20197;-63
2023/12/14 05:16:15;;;;;;;2.92;1.50;;;18.00;40.00;;;;;;5113828;28;20224;-63
2023/12/14 05:18:42;;;;;;;2.55;1.35;;;18.00;40.00;;;;;;5113491;28;20832;-63
2023/12/14 05:21:09;;;;;;;2.60;1.20;;;18.00;40.70;;;;;;5113181;28;20323;-63
2023/12/14 05:23:36;;;;;;;2.58;1.23;;;18.00;40.10;;;;;;5114046;28;20275;-63
2023/12/14 05:26:03;;;;;;;2.17;1.10;;;18.00;40.80;;;;;;5113799;28;20304;-63
2023/12/14 05:28:30;;;;;;;2.53;1.30;;;18.00;40.10;;;;;;5113309;28;20689;-63
2023/12/14 05:30:57;;;;;;;2.95;1.10;;;18.00;40.80;;;;;;5113333;28;20588;-63
2023/12/14 05:33:25;;;;;;;2.67;1.20;;;18.00;40.80;;;;;;5113798;28;20293;-64
2023/12/14 05:35:52;;;;;;;1.67;1.10;;;18.00;40.20;;;;;;5113259;28;20224;-63
2023/12/14 05:38:19;;;;;;;1.60;1.30;;;18.00;40.30;;;;;;5111501;28;20284;-63
2023/12/14 05:40:46;;;;;;;1.50;1.17;;;18.00;40.40;;;;;;5113384;28;20229;-63
2023/12/14 05:43:13;;;;;;;2.70;1.30;;;18.00;40.40;;;;;;5113068;28;20189;-63
2023/12/14 05:45:41;;;;;;;2.20;1.27;;;18.10;41.00;;;;;;5108458;28;20205;-63
2023/12/14 05:48:08;;;;;;;3.55;1.40;;;18.20;40.80;;;;;;5110772;28;20675;-63
2023/12/14 05:50:36;;;;;;;2.20;1.25;;;18.30;40.20;;;;;;5092721;28;20354;-64
2023/12/14 05:53:03;;;;;;;2.17;1.20;;;18.50;40.10;;;;;;5092893;28;20269;-63
2023/12/14 05:55:30;;;;;;;2.38;1.27;;;18.60;40.90;;;;;;5092491;28;20308;-63
2023/12/14 05:57:56;;;;;;;2.08;1.05;;;18.70;40.10;;;;;;5092855;28;20185;-63
2023/12/14 06:00:23;;;;;;;1.65;1.08;;;18.90;40.60;;;;;;5092660;28;20314;-63
2023/12/14 06:02:50;;;;;;;2.33;1.55;;;19.00;39.80;;;;;;5092553;28;20197;-63
2023/12/14 06:05:17;;;;;;;2.58;1.17;;;19.20;40.30;;;;;;5104869;28;20217;-63
2023/12/14 06:07:46;;;;;;;3.30;1.17;;;19.40;39.50;;;;;;5113218;28;20195;-64
2023/12/14 06:10:13;;;;;;;1.58;1.08;;;19.50;39.30;;;;;;5112603;28;20304;-60
2023/12/14 06:12:39;;;;;;;2.63;1.20;;;19.70;39.20;;;;;;5112677;28;20202;-64
2023/12/14 06:15:08;;;;;;;4.50;1.50;;;19.80;38.90;;;;;;5112727;28;20219;-64
2023/12/14 06:17:37;;;;;;;2.95;1.33;;;19.90;38.70;;;;;;5112619;28;20280;-64
2023/12/14 06:20:04;;;;;;;2.25;1.33;;;20.00;39.20;;;;;;5112659;28;20221;-64
2023/12/14 06:22:32;;;;;;;2.65;1.15;;;20.10;38.60;;;;;;5112221;28;20217;-63
2023/12/14 06:25:00;;;;;;;4.55;1.20;;;20.10;39.10;;;;;;5112427;28;20213;-64
2023/12/14 06:27:27;;;;;;;3.58;1.50;;;20.10;38.50;;;;;;5112471;28;20193;-64
2023/12/14 06:29:54;;;;;;;1.52;1.05;;;20.00;39.10;;;;;;5112349;28;20217;-63
2023/12/14 06:32:21;;;;;;;2.97;1.20;;;20.00;38.40;;;;;;5103062;28;20280;-64
2023/12/14 06:34:48;;;;;;;2.20;1.38;;;20.00;38.40;;;;;;5111989;28;20217;-63
2023/12/14 06:37:15;;;;;;;2.00;1.23;;;19.90;38.40;;;;;;5111929;28;20669;-64
2023/12/14 06:39:42;;;;;;;3.58;1.10;;;19.90;39.10;;;;;;5112586;28;20208;-64
2023/12/14 06:42:11;;;;;;;2.92;1.52;;;19.80;38.50;;;;;;5112094;28;20239;-64
2023/12/14 06:44:38;;;;;;;2.25;1.20;;;19.70;38.50;;;;;;5112110;28;20217;-63
2023/12/14 06:47:06;;;;;;;4.43;1.55;;;19.70;38.70;;;;;;5109951;28;20220;-64
2023/12/14 06:49:33;;;;;;;3.50;1.23;;;19.60;39.40;;;;;;5111357;28;20565;-59
2023/12/14 06:52:00;;;;;;;2.03;1.20;;;19.50;38.80;;;;;;5112278;28;20220;-63
2023/12/14 06:54:27;;;;;;;2.35;1.30;;;19.50;39.00;;;;;;5112041;28;20647;-63
2023/12/14 06:56:54;;;;;;;2.42;1.20;;;19.40;39.00;;;;;;5111536;28;20217;-63
2023/12/14 06:59:22;;;;;;;2.22;1.02;;;19.40;39.20;;;;;;5111259;28;20292;-63
2023/12/14 07:01:50;;;;;;;2.15;1.10;;;19.30;39.20;;;;;;5111930;28;20232;-64
2023/12/14 07:04:19;;;;;;;2.38;1.10;;;19.20;39.40;;;;;;5111559;28;20199;-63
2023/12/14 07:06:52;;;;;;;2.60;1.40;;;19.20;39.50;;;;;;5112248;28;20213;-64
2023/12/14 07:09:19;;;;;;;2.67;1.58;;;19.20;40.30;;;;;;5111812;28;20197;-58
2023/12/14 07:11:46;;;;;;;1.48;1.00;;;19.10;39.70;;;;;;5111185;28;20247;-63
2023/12/14 07:14:14;;;;;;;2.60;1.25;;;19.00;39.60;;;;;;5111821;28;20675;-63
2023/12/14 07:16:43;;;;;;;3.03;1.60;;;19.00;39.80;;;;;;5093125;28;20771;-63
2023/12/14 07:19:11;;;;;;;3.92;1.30;;;19.00;40.40;;;;;;5095713;28;20274;-63
2023/12/14 07:21:38;;;;;;;1.52;1.05;;;18.90;39.80;;;;;;5085596;28;20728;-62
2023/12/14 07:24:06;;;;;;;2.60;1.20;;;18.90;40.00;;;;;;5121164;27;20208;-62
2023/12/14 07:26:33;;;;;;;1.73;1.05;;;18.90;40.10;;;;;;5100710;28;20702;-59
2023/12/14 07:29:00;;;;;;;3.42;1.20;;;18.90;40.20;;;;;;5100977;28;20190;-63
2023/12/14 07:31:28;;;;;;;4.03;1.40;;;18.90;40.10;;;;;;5106801;28;20410;-62
2023/12/14 07:33:57;;;;;;;2.47;1.40;;;18.90;40.20;;;;;;5103893;28;20190;-63
2023/12/14 07:36:24;;;;;;;4.70;1.50;;;19.00;40.40;;;;;;5104187;28;20260;-62
2023/12/14 07:38:51;;;;;;;3.65;1.27;;;19.10;40.60;;;;;;5091324;28;20207;-64
2023/12/14 07:41:18;;;;;;;2.67;1.40;;;19.20;40.50;;;;;;5093769;28;20239;-65
2023/12/14 07:43:45;;;;;;;3.38;1.52;;;19.40;40.50;;;;;;5095278;28;20236;-64
2023/12/14 07:46:12;;;;;;;3.00;1.40;;;19.50;40.00;;;;;;5077526;28;20292;-62
2023/12/14 07:48:39;;;;;;;3.17;1.52;;;19.70;40.00;;;;;;5101676;28;20237;-63
2023/12/14 07:51:07;;;;;;;3.42;1.48;;;19.80;39.70;;;;;;5075091;28;20249;-62
2023/12/14 07:53:34;;;;;;;2.95;1.25;;;20.00;39.50;;;;;;5071102;28;20291;-64
2023/12/14 07:56:02;;;;;;;2.88;1.33;;;20.10;39.30;;;;;;5064340;28;20232;-65
2023/12/14 07:58:29;;;;;;;1.70;1.17;;;20.20;39.10;;;;;;5091861;28;20197;-64
2023/12/14 08:00:56;;;;;;;2.40;1.13;;;20.30;39.60;;;;;;5105214;28;20213;-65
2023/12/14 08:03:23;;;;;;;2.83;1.13;;;20.40;38.90;;;;;;5083758;28;20572;-64
2023/12/14 08:05:50;;;;;;;2.40;1.15;;;20.40;38.80;;;;;;5085421;28;20875;-62
2023/12/14 08:08:21;;;;;;;4.07;1.33;;;20.40;38.80;;;;;;5086511;28;20197;-59
2023/12/14 08:10:48;;;;;;;6.97;1.40;;;20.40;39.20;;;;;;5089472;28;20230;-62
2023/12/14 08:13:15;;;;;;;4.28;1.40;;;20.50;39.60;;;;;;5098412;28;20216;-63
2023/12/14 08:15:41;;;;;;;4.03;1.05;;;20.50;39.70;;;;;;5090422;28;20325;-62
2023/12/14 08:18:08;;;;;;;3.42;1.30;;;20.70;39.70;;;;;;5101469;28;20998;-63
2023/12/14 08:20:35;;;;;;;4.13;1.13;;;20.80;39.50;;;;;;5077767;28;20214;-64
2023/12/14 08:23:02;;;;;;;3.10;1.10;;;21.00;39.40;;;;;;5082032;28;20214;-63
2023/12/14 08:25:30;;;;;;;6.32;1.40;;;21.10;39.20;;;;;;5086761;28;20225;-61
2023/12/14 08:27:58;;;;;;;3.47;1.20;;;21.30;39.00;;;;;;5084471;28;20226;-66
2023/12/14 08:30:25;;;;;;;2.55;1.15;;;21.40;38.90;;;;;;5081604;28;20284;-65
2023/12/14 08:32:52;;;;;;;3.08;1.27;;;21.60;38.80;;;;;;5091391;28;20282;-66
2023/12/14 08:35:19;;;;;;;2.67;1.30;;;21.70;38.80;;;;;;5088053;28;20208;-66
2023/12/14 08:37:45;;;;;;;5.22;1.27;;;21.90;38.50;;;;;;5079553;28;20465;-65
2023/12/14 08:40:13;;;;;;;6.00;1.52;;;22.00;38.20;;;;;;5083626;28;20202;-61
2023/12/14 08:42:42;;;;;;;4.93;1.50;;;22.10;38.20;;;;;;5073996;28;20240;-59
2023/12/14 08:45:11;;;;;;;3.65;1.30;;;22.20;38.20;;;;;;5068765;28;20458;-55
2023/12/14 08:47:38;;;;;;;4.47;1.40;;;22.30;38.30;;;;;;5069456;28;21461;-57
2023/12/14 08:50:07;;;;;;;2.35;1.30;;;22.50;38.00;;;;;;5075571;28;20225;-58
2023/12/14 08:52:34;;;;;;;3.75;1.42;;;22.60;37.90;;;;;;5083547;28;20214;-61
2023/12/14 08:55:02;;;;;;;4.57;1.50;;;22.60;37.80;;;;;;5079931;28;20194;-58
2023/12/14 08:57:29;;;;;;;3.22;1.27;;;22.60;37.90;;;;;;5086395;28;20222;-57
2023/12/14 08:59:57;;;;;;;4.72;2.08;;;22.70;38.00;;;;;;5084284;28;20329;-58
2023/12/14 09:02:24;;;;;;;5.80;1.63;;;22.80;37.90;;;;;;5090351;28;20239;-57
2023/12/14 09:04:51;;;;;;;7.50;1.20;;;22.90;38.00;;;;;;5085146;28;20285;-57
2023/12/14 09:07:39;;;;;;;6.22;1.88;;;23.00;38.00;;;;;;5091617;28;21017;-59
2023/12/14 09:10:07;;;;;;;4.45;1.40;;;23.00;37.80;;;;;;5076992;28;20210;-57
2023/12/14 09:12:35;;;;;;;5.72;1.58;;;23.10;37.80;;;;;;5086759;28;20259;-57
2023/12/14 09:15:04;;;;;;;7.30;1.60;;;23.20;37.90;;;;;;5089485;28;20266;-56
2023/12/14 09:17:32;;;;;;;4.35;1.58;;;23.20;38.10;;;;;;5089249;28;20304;-58
2023/12/14 09:20:00;;;;;;;3.28;1.60;;;23.20;37.90;;;;;;5080610;28;20205;-51
2023/12/14 09:22:27;;;;;;;2.60;1.42;;;23.30;38.00;;;;;;5085583;28;20714;-57
2023/12/14 09:24:54;;;;;;;5.40;1.80;;;23.40;38.00;;;;;;5095544;28;20981;-56
2023/12/14 09:27:21;;;;;;;3.47;1.65;;;23.40;37.90;;;;;;5087675;28;20353;-57
2023/12/14 09:29:48;;;;;;;7.78;2.15;;;23.50;37.90;;;;;;5091580;28;20194;-59
2023/12/14 09:32:18;;;;;;;3.15;1.70;;;23.50;37.90;;;;;;5083277;28;20228;-58
2023/12/14 09:34:45;;;;;;;5.97;1.90;;;23.60;37.90;;;;;;5037449;28;20581;-58
2023/12/14 09:37:14;;;;;;;6.40;2.17;;;23.60;38.00;;;;;;5092153;28;20248;-58
2023/12/14 09:39:41;;;;;;;4.65;2.25;;;23.60;37.90;;;;;;5087750;28;20197;-54
2023/12/14 09:42:08;;;;;;;7.88;2.17;;;23.70;37.90;;;;;;5073083;28;20266;-56
2023/12/14 09:44:36;;;;;;;4.90;2.30;;;23.70;37.90;;;;;;5076128;28;20738;-56
2023/12/14 09:47:03;;;;;;;3.70;2.20;;;23.70;37.90;;;;;;5085519;28;20221;-58
2023/12/14 09:49:32;;;;;;;4.13;2.22;;;23.80;37.90;;;;;;5099547;28;20221;-52
2023/12/14 09:51:59;;;;;;;4.07;2.10;;;23.80;37.90;;;;;;5086290;28;20275;-52
2023/12/14 09:54:27;;;;;;;7.43;2.00;;;23.70;37.80;;;;;;5085101;28;20194;-55
2023/12/14 09:56:54;;;;;;;7.28;2.25;;;23.80;37.90;;;;;;5088315;28;20225;-58
2023/12/14 09:59:22;;;;;;;4.85;1.85;;;23.90;38.00;;;;;;5093595;28;20206;-54
2023/12/14 10:01:49;;;;;;;5.10;2.00;;;23.90;38.00;;;;;;5082015;28;20233;-49
2023/12/14 10:04:17;;;;;;;7.28;1.85;;;23.90;38.00;;;;;;5081537;28;20312;-57
2023/12/14 10:10:15;;;;;;;4.53;2.20;;;23.80;37.90;;;;;;5064651;28;20178;-54
2023/12/14 10:12:53;;;;;;;4.15;1.88;;;23.70;37.90;;;;;;5078797;28;20840;-55
2023/12/14 10:15:20;;;;;;;7.45;2.42;;;23.70;37.90;;;;;;5089775;28;20194;-57
2023/12/14 10:17:53;;;;;;;3.08;1.88;;;23.60;37.80;;;;;;5095864;28;20322;-56
2023/12/14 10:20:21;;;;;;;5.38;2.33;;;23.50;37.80;;;;;;5084912;28;20194;-53
2023/12/14 10:22:49;;;;;;;6.97;2.30;;;23.40;37.90;;;;;;5089863;28;20241;-55
2023/12/14 10:25:19;;;;;;;5.18;2.00;;;23.40;38.00;;;;;;5088099;28;20210;-56
2023/12/14 10:27:48;;;;;;;4.90;1.90;;;23.30;38.80;;;;;;5086576;28;20761;-54
2023/12/14 10:30:16;;;;;;;5.70;2.33;;;23.20;38.30;;;;;;5086058;28;20575;-55
2023/12/14 10:32:43;;;;;;;8.10;2.40;;;23.10;38.30;;;;;;5086069;28;20801;-54
2023/12/14 10:35:12;;;;;;;7.25;2.13;;;23.00;39.00;;;;;;5085653;28;20205;-56
2023/12/14 10:37:39;;;;;;;4.13;2.13;;;22.90;38.50;;;;;;5089622;28;20220;-55
2023/12/14 10:40:10;;;;;;;6.50;2.17;;;22.80;38.60;;;;;;5093694;28;20836;-57
2023/12/14 10:42:40;;;;;;;5.32;2.05;;;22.70;38.60;;;;;;5097660;28;20315;-58
2023/12/14 10:45:08;;;;;;;6.78;2.45;;;22.70;38.70;;;;;;5103832;28;20281;-58
2023/12/14 10:47:35;;;;;;;7.93;2.22;;;22.60;39.10;;;;;;5106242;28;20217;-57
2023/12/14 10:50:04;;;;;;;7.15;2.13;;;22.60;39.30;;;;;;5106393;28;20193;-57
2023/12/14 10:52:35;;;;;;;6.57;2.45;;;22.50;39.40;;;;;;5104889;28;20217;-61
2023/12/14 10:55:06;;;;;;;8.77;2.17;;;22.50;39.50;;;;;;5090115;28;20558;-59
2023/12/14 10:57:34;;;;;;;6.95;2.60;;;22.50;39.80;;;;;;5102127;28;20379;-57
2023/12/14 11:00:07;;;;;;;9.48;2.08;;;22.40;39.70;;;;;;5092861;28;20206;-58
2023/12/14 11:02:42;;;;;;;5.95;2.30;;;22.40;39.70;;;;;;5095618;28;20232;-56
2023/12/14 11:05:12;;;;;;;2.55;1.85;;;22.40;39.70;;;;;;5098958;28;20205;-57
2023/12/14 11:07:51;;;;;;;5.80;1.92;;;22.40;39.50;;;;;;5106414;28;20223;-56
2023/12/14 11:10:23;;;;;;;5.05;2.50;;;22.40;39.50;;;;;;5100260;28;20209;-57
2023/12/14 11:12:58;;;;;;;3.92;2.00;;;22.40;39.50;;;;;;5063042;28;20719;-56
2023/12/14 11:15:27;;;;;;;7.93;2.00;;;22.40;39.50;;;;;;5056851;28;20674;-58
2023/12/14 11:18:28;;;;;;;5.95;2.42;;;22.30;39.50;;;;;;5057833;28;20257;-59
2023/12/14 11:20:56;;;;;;;6.65;2.40;;;22.20;39.60;;;;;;5061563;28;20278;-57
2023/12/14 11:23:38;;;;;;;9.00;1.95;;;22.10;39.90;;;;;;5052865;28;20712;-55
2023/12/14 11:26:07;;;;;;;6.25;2.00;;;22.00;40.00;;;;;;5059014;28;20197;-57
2023/12/14 11:28:35;;;;;;;5.47;1.90;;;21.90;40.10;;;;;;5066714;28;20222;-57
2023/12/14 11:31:06;;;;;;;4.53;2.00;;;21.80;40.60;;;;;;5059752;28;20294;-58
2023/12/14 11:33:32;;;;;;;3.50;1.95;;;21.70;40.00;;;;;;5055102;28;20317;-55
2023/12/14 11:35:59;;;;;;;7.20;1.73;;;21.60;40.10;;;;;;5057870;28;20413;-57
2023/12/14 11:38:26;;;;;;;3.25;1.90;;;21.50;40.00;;;;;;5067477;28;20223;-59
2023/12/14 11:40:53;;;;;;;6.43;2.03;;;21.40;40.10;;;;;;5067696;28;20268;-58
2023/12/14 11:43:21;;;;;;;9.85;2.42;;;21.30;40.10;;;;;;5068013;28;20272;-59
2023/12/14 11:45:49;;;;;;;3.72;1.75;;;21.20;40.10;;;;;;5066775;28;20207;-58
2023/12/14 11:48:17;;;;;;;4.88;1.85;;;21.20;40.30;;;;;;5067465;28;20314;-59
2023/12/14 11:50:45;;;;;;;4.63;1.88;;;21.10;40.30;;;;;;5082285;28;20187;-58
2023/12/14 11:53:12;;;;;;;3.47;1.73;;;21.00;40.30;;;;;;5067389;28;20602;-58
2023/12/14 11:55:41;;;;;;;2.35;1.48;;;20.90;40.30;;;;;;5067018;28;20257;-59
2023/12/14 11:58:08;;;;;;;2.95;1.73;;;20.90;40.50;;;;;;5066057;28;20214;-58
2023/12/14 12:00:37;;;;;;;4.63;1.67;;;20.80;41.20;;;;;;5067067;28;20281;-58
2023/12/14 12:03:12;;;;;;;2.55;1.63;;;20.80;40.70;;;;;;5065744;28;20231;-59
2023/12/14 12:05:42;;;;;;;2.05;1.60;;;20.80;40.80;;;;;;5066599;28;20565;-59
2023/12/14 12:08:10;;;;;;;2.75;1.80;;;20.90;40.80;;;;;;5067005;28;20738;-59
2023/12/14 12:10:37;;;;;;;2.40;1.75;;;21.00;40.80;;;;;;5068616;28;20221;-58
2023/12/14 12:13:05;;;;;;;2.97;1.60;;;21.10;40.60;;;;;;5067889;28;20313;-57
2023/12/14 12:15:35;;;;;;;3.78;1.60;;;21.20;40.60;;;;;;5066810;28;20418;-59
2023/12/14 12:18:07;;;;;;;2.30;1.55;;;21.30;40.50;;;;;;5066526;28;20699;-58
2023/12/14 12:20:34;;;;;;;4.32;1.60;;;21.40;41.10;;;;;;5066572;28;20747;-59
2023/12/14 12:23:03;;;;;;;2.65;1.40;;;21.50;40.40;;;;;;5066774;28;20329;-58
2023/12/14 12:25:31;;;;;;;2.58;1.60;;;21.60;40.30;;;;;;5069833;28;20190;-59
2023/12/14 12:27:58;;;;;;;2.83;1.80;;;21.70;40.90;;;;;;5055710;28;20218;-58
2023/12/14 12:30:25;;;;;;;4.25;1.50;;;21.80;40.10;;;;;;5089693;28;20281;-58
2023/12/14 12:32:53;;;;;;;2.47;1.30;;;21.90;40.00;;;;;;5072645;28;20221;-58
2023/12/14 12:35:20;;;;;;;5.55;1.80;;;22.00;40.00;;;;;;5090230;28;20288;-59
2023/12/14 12:37:47;;;;;;;4.55;1.50;;;22.10;39.90;;;;;;5072500;28;20302;-58
2023/12/14 12:40:19;;;;;;;2.90;1.42;;;22.20;39.80;;;;;;5070327;28;20644;-58
2023/12/14 12:42:48;;;;;;;4.18;1.55;;;22.30;39.80;;;;;;5069913;28;20838;-59
2023/12/14 12:45:15;;;;;;;1.60;1.35;;;22.40;39.70;;;;;;5070253;28;20652;-59
2023/12/14 12:47:43;;;;;;;4.35;1.70;;;22.40;39.60;;;;;;5069697;28;20656;-58
2023/12/14 12:50:15;;;;;;;3.45;1.67;;;22.40;39.50;;;;;;5070378;28;20187;-59
2023/12/14 12:52:48;;;;;;;2.25;1.27;;;22.40;39.50;;;;;;5043921;28;20691;-58
2023/12/14 12:55:24;;;;;;;2.33;1.20;;;22.40;39.50;;;;;;5075654;28;20226;-62